Time;durP1;ratioP1;P1;durP2;ratioP2;P2;SDS_P1;SDS_P2;PMS_P1;PMS_P2;Temp;Humidity;BMP_temperature;BMP_pressure;BME280_temperature;BME280_humidity;BME280_pressure;Samples;Min_cycle;Max_cycle;Signal;HPM_P1;HPM_P2
2023/10/30 00:00:09;;;;;;;;;;;10.40;99.90;;;;;;21330567;27;19998;-78
2023/10/30 00:10:10;;;;;;;;;;;10.40;99.90;;;;;;21329541;27;20270;-80
2023/10/30 00:20:10;;;;;;;;;;;10.10;99.90;;;;;;21327542;27;19919;-80
2023/10/30 00:30:11;;;;;;;;;;;10.00;99.90;;;;;;21327380;27;19960;-80
2023/10/30 00:40:12;;;;;;;;;;;9.90;99.90;;;;;;21319974;27;20044;-81
2023/10/30 00:50:13;;;;;;;;;;;9.80;99.90;;;;;;21341617;27;19919;-80
2023/10/30 01:00:15;;;;;;;;;;;9.70;99.90;;;;;;21347948;27;19918;-78
2023/10/30 01:10:16;;;;;;;;;;;9.50;99.90;;;;;;21347822;27;19915;-79
2023/10/30 01:20:16;;;;;;;;;;;9.00;99.90;;;;;;21344646;27;20361;-80
2023/10/30 01:30:17;;;;;;;;;;;9.00;99.90;;;;;;21345132;27;19995;-79
2023/10/30 01:40:18;;;;;;;;;;;9.00;99.90;;;;;;21345247;27;19936;-79
2023/10/30 01:50:19;;;;;;;;;;;8.60;99.90;;;;;;21338421;27;19959;-80
2023/10/30 02:00:20;;;;;;;;;;;9.00;99.90;;;;;;21341958;27;19915;-78
2023/10/30 02:10:21;;;;;;;;;;;9.30;99.90;;;;;;21333964;27;20420;-80
2023/10/30 02:20:21;;;;;;;;;;;9.40;99.90;;;;;;21329097;27;19911;-80
2023/10/30 02:30:24;;;;;;;;;;;9.40;99.90;;;;;;21340524;27;19919;-80
2023/10/30 02:40:25;;;;;;;;;;;9.20;99.90;;;;;;21338377;27;19915;-80
2023/10/30 02:50:26;;;;;;;;;;;8.70;99.90;;;;;;21336085;27;19922;-79
2023/10/30 03:00:27;;;;;;;;;;;8.40;99.90;;;;;;21335858;27;19998;-81
2023/10/30 03:10:28;;;;;;;;;;;8.40;99.90;;;;;;21336094;27;19915;-81
2023/10/30 03:20:29;;;;;;;;;;;8.80;99.90;;;;;;21334208;27;20361;-80
2023/10/30 03:30:29;;;;;;;;;;;8.60;99.90;;;;;;21333410;27;19990;-80
2023/10/30 03:40:30;;;;;;;;;;;8.90;99.90;;;;;;21327350;27;19961;-79
2023/10/30 03:50:30;;;;;;;;;;;8.70;99.90;;;;;;21271047;27;19916;-76
2023/10/30 04:00:31;;;;;;;;;;;8.70;99.90;;;;;;21289999;27;20388;-79
2023/10/30 04:10:32;;;;;;;;;;;8.70;99.90;;;;;;21277139;27;19915;-80
2023/10/30 04:20:32;;;;;;;;;;;8.40;99.90;;;;;;21279609;27;19911;-81
2023/10/30 04:30:35;;;;;;;;;;;8.40;99.90;;;;;;21294422;27;19922;-80
2023/10/30 04:40:35;;;;;;;;;;;8.60;99.90;;;;;;21331468;27;19915;-78
2023/10/30 04:50:36;;;;;;;;;;;8.60;99.90;;;;;;21315784;27;20010;-80
2023/10/30 05:00:37;;;;;;;;;;;8.50;99.90;;;;;;21341687;27;19910;-81
2023/10/30 05:10:37;;;;;;;;;;;8.50;99.90;;;;;;21274443;27;19930;-78
2023/10/30 05:20:38;;;;;;;;;;;8.20;99.90;;;;;;21322585;27;19919;-76
2023/10/30 05:30:39;;;;;;;;;;;7.80;99.90;;;;;;21331366;27;20005;-79
2023/10/30 05:40:43;;;;;;;;;;;7.90;99.90;;;;;;21325345;27;19911;-80
2023/10/30 05:50:45;;;;;;;;;;;7.70;99.90;;;;;;21337419;27;20209;-79
2023/10/30 06:00:46;;;;;;;;;;;7.60;99.90;;;;;;21334127;27;19944;-78
2023/10/30 06:10:46;;;;;;;;;;;7.40;99.90;;;;;;21319443;27;19922;-78
2023/10/30 06:20:47;;;;;;;;;;;8.00;99.90;;;;;;21294249;27;20377;-79
2023/10/30 06:30:47;;;;;;;;;;;7.60;99.90;;;;;;21299106;27;19922;-80
2023/10/30 06:40:48;;;;;;;;;;;7.50;99.90;;;;;;21311665;27;19911;-81
2023/10/30 06:50:49;;;;;;;;;;;7.80;99.90;;;;;;21323545;27;19918;-81
2023/10/30 07:00:50;;;;;;;;;;;8.30;99.90;;;;;;21327814;27;20001;-78
2023/10/30 07:10:51;;;;;;;;;;;8.40;99.90;;;;;;21309667;27;20292;-79
2023/10/30 07:20:52;;;;;;;;;;;8.50;99.90;;;;;;21327436;27;21238;-79
2023/10/30 07:30:52;;;;;;;;;;;9.10;99.90;;;;;;21327455;27;19923;-80
2023/10/30 07:40:53;;;;;;;;;;;9.50;99.90;;;;;;21320214;27;19919;-78
2023/10/30 07:50:54;;;;;;;;;;;9.20;99.90;;;;;;21311415;27;19922;-81
2023/10/30 08:00:55;;;;;;;;;;;9.90;99.90;;;;;;21322602;27;19918;-79
2023/10/30 08:10:55;;;;;;;;;;;10.00;99.90;;;;;;21318755;27;19926;-79
2023/10/30 08:20:57;;;;;;;;;;;10.10;99.90;;;;;;21341053;27;20018;-80
2023/10/30 08:30:57;;;;;;;;;;;9.60;99.90;;;;;;21342589;27;20072;-80
2023/10/30 08:40:58;;;;;;;;;;;10.00;99.90;;;;;;21326495;27;19919;-77
2023/10/30 08:50:59;;;;;;;;;;;9.70;99.90;;;;;;21309180;27;19923;-79
2023/10/30 09:00:59;;;;;;;;;;;9.70;99.90;;;;;;21306281;27;20375;-79
2023/10/30 09:11:00;;;;;;;;;;;10.00;99.90;;;;;;21313305;27;19986;-80
2023/10/30 09:21:01;;;;;;;;;;;10.10;99.90;;;;;;21344020;27;19911;-79
2023/10/30 09:31:02;;;;;;;;;;;10.20;99.90;;;;;;21346252;27;19915;-81
2023/10/30 09:41:04;;;;;;;;;;;10.40;99.90;;;;;;21348724;27;19911;-80
2023/10/30 09:51:06;;;;;;;;;;;10.60;99.90;;;;;;21284924;27;19947;-81
2023/10/30 10:01:06;;;;;;;;;;;10.60;99.90;;;;;;21315555;27;19915;-81
2023/10/30 10:11:07;;;;;;;;;;;10.60;99.90;;;;;;21332718;27;20286;-78
2023/10/30 10:21:09;;;;;;;;;;;10.60;99.90;;;;;;21338317;27;19911;-81
2023/10/30 10:31:09;;;;;;;;;;;10.90;99.90;;;;;;21324481;27;19915;-79
2023/10/30 10:41:10;;;;;;;;;;;11.10;99.90;;;;;;21363243;27;19922;-79
2023/10/30 10:51:13;;;;;;;;;;;11.20;99.90;;;;;;21323448;27;19915;-78
2023/10/30 11:01:17;;;;;;;;;;;11.50;99.90;;;;;;21306168;27;20437;-79
2023/10/30 11:11:22;;;;;;;;;;;11.80;99.90;;;;;;21337955;27;19967;-79
2023/10/30 11:21:25;;;;;;;;;;;12.00;99.90;;;;;;21355313;27;19911;-79
2023/10/30 11:31:29;;;;;;;;;;;11.90;99.90;;;;;;21331303;27;19919;-79
2023/10/30 11:41:30;;;;;;;;;;;12.00;99.90;;;;;;21360939;27;19911;-79
2023/10/30 11:51:30;;;;;;;;;;;12.10;99.90;;;;;;21310756;27;20002;-79
2023/10/30 12:01:32;;;;;;;;;;;12.20;99.90;;;;;;21279700;27;19917;-77
2023/10/30 12:11:33;;;;;;;;;;;12.20;99.90;;;;;;21287875;27;19919;-77
2023/10/30 12:21:34;;;;;;;;;;;12.20;99.90;;;;;;21299597;27;20283;-77
2023/10/30 12:31:35;;;;;;;;;;;12.40;99.90;;;;;;21355444;27;19982;-78
2023/10/30 12:41:35;;;;;;;;;;;12.50;99.90;;;;;;21427237;27;19917;-77
2023/10/30 12:51:36;;;;;;;;;;;12.50;99.90;;;;;;21421575;27;20006;-77
2023/10/30 13:01:37;;;;;;;;;;;12.30;99.90;;;;;;21421999;27;19931;-77
2023/10/30 13:11:37;;;;;;;;;;;12.60;99.90;;;;;;21406824;27;19922;-77
2023/10/30 13:21:38;;;;;;;;;;;12.60;99.90;;;;;;21421835;27;19911;-78
2023/10/30 13:31:39;;;;;;;;;;;12.60;99.90;;;;;;21385856;27;19915;-77
2023/10/30 13:41:39;;;;;;;;;;;12.80;99.90;;;;;;21339408;27;20010;-77
2023/10/30 13:51:40;;;;;;;;;;;12.90;99.90;;;;;;21328038;27;20055;-77
2023/10/30 14:01:41;;;;;;;;;;;12.90;99.90;;;;;;21315425;27;19946;-77
2023/10/30 14:11:42;;;;;;;;;;;12.90;99.90;;;;;;21337202;27;20010;-78
2023/10/30 14:21:44;;;;;;;;;;;12.60;99.90;;;;;;21333626;27;20375;-77
2023/10/30 14:31:45;;;;;;;;;;;12.70;99.90;;;;;;21337000;27;20007;-77
2023/10/30 14:41:45;;;;;;;;;;;13.00;99.90;;;;;;21336794;27;19915;-77
2023/10/30 14:51:46;;;;;;;;;;;13.10;99.90;;;;;;21320919;27;20259;-77
2023/10/30 15:01:47;;;;;;;;;;;13.00;99.90;;;;;;21323807;27;19994;-77
2023/10/30 15:11:48;;;;;;;;;;;12.80;99.90;;;;;;21291458;27;19973;-77
2023/10/30 15:21:48;;;;;;;;;;;12.60;99.90;;;;;;21324171;27;19967;-77
2023/10/30 15:31:49;;;;;;;;;;;12.40;99.90;;;;;;21368486;27;19966;-77
2023/10/30 15:41:50;;;;;;;;;;;12.40;99.90;;;;;;21383682;27;19915;-76
2023/10/30 15:51:51;;;;;;;;;;;12.20;99.90;;;;;;21395786;27;19968;-77
2023/10/30 16:01:51;;;;;;;;;;;12.10;99.90;;;;;;21359069;27;20041;-77
2023/10/30 16:11:52;;;;;;;;;;;11.90;99.90;;;;;;21378232;27;19927;-78
2023/10/30 16:21:54;;;;;;;;;;;11.80;99.90;;;;;;21366971;27;19967;-78
2023/10/30 16:31:55;;;;;;;;;;;11.80;99.90;;;;;;21403752;27;19919;-78
2023/10/30 16:41:55;;;;;;;;;;;12.00;99.90;;;;;;21386722;27;19955;-78
2023/10/30 16:51:56;;;;;;;;;;;12.00;99.90;;;;;;21374686;27;19926;-78
2023/10/30 17:01:57;;;;;;;;;;;11.70;99.90;;;;;;21382693;27;19919;-79
2023/10/30 17:11:57;;;;;;;;;;;11.70;99.90;;;;;;21405333;27;20065;-78
2023/10/30 17:21:58;;;;;;;;;;;11.90;99.90;;;;;;21380020;27;20013;-78
2023/10/30 17:31:59;;;;;;;;;;;11.90;99.90;;;;;;21383251;27;19927;-78
2023/10/30 17:41:59;;;;;;;;;;;11.70;99.90;;;;;;21356754;27;19967;-79
2023/10/30 17:52:00;;;;;;;;;;;11.80;99.90;;;;;;21342942;27;19919;-80
2023/10/30 18:02:01;;;;;;;;;;;11.80;99.90;;;;;;21346564;27;19961;-81
2023/10/30 18:12:01;;;;;;;;;;;11.80;99.90;;;;;;21310890;27;20669;-80
2023/10/30 18:22:02;;;;;;;;;;;11.70;99.90;;;;;;21319179;27;20297;-80
2023/10/30 18:32:03;;;;;;;;;;;11.70;99.90;;;;;;21323539;27;19953;-81
2023/10/30 18:42:04;;;;;;;;;;;11.60;99.90;;;;;;21329632;27;19957;-82
2023/10/30 18:52:05;;;;;;;;;;;11.60;99.90;;;;;;21314440;27;19915;-82
2023/10/30 19:02:06;;;;;;;;;;;11.60;99.90;;;;;;21325135;27;19976;-80
2023/10/30 19:12:07;;;;;;;;;;;11.50;99.90;;;;;;21320898;27;20234;-80
2023/10/30 19:22:11;;;;;;;;;;;11.40;99.90;;;;;;21314210;27;19926;-82
2023/10/30 19:32:11;;;;;;;;;;;11.30;99.90;;;;;;21329680;27;19922;-80
2023/10/30 19:42:12;;;;;;;;;;;11.30;99.90;;;;;;21328758;27;20297;-81
2023/10/30 19:52:13;;;;;;;;;;;11.10;99.90;;;;;;21324093;27;19926;-82
2023/10/30 20:02:13;;;;;;;;;;;11.00;99.90;;;;;;21326009;27;19979;-81
2023/10/30 20:12:14;;;;;;;;;;;11.00;99.90;;;;;;21307123;27;19915;-79
2023/10/30 20:22:15;;;;;;;;;;;10.90;99.90;;;;;;21324726;27;19911;-80
2023/10/30 20:32:15;;;;;;;;;;;10.90;99.90;;;;;;21320673;27;19916;-80
2023/10/30 20:42:16;;;;;;;;;;;10.80;99.90;;;;;;21313480;27;19966;-80
2023/10/30 20:52:17;;;;;;;;;;;10.70;99.90;;;;;;21311189;27;20397;-79
2023/10/30 21:02:18;;;;;;;;;;;10.70;99.90;;;;;;21324025;27;19911;-79
2023/10/30 21:12:19;;;;;;;;;;;10.70;99.90;;;;;;21338280;27;20309;-80
2023/10/30 21:22:20;;;;;;;;;;;10.60;99.90;;;;;;21358894;27;19964;-80
2023/10/30 21:32:21;;;;;;;;;;;10.70;99.90;;;;;;21371864;27;19970;-80
2023/10/30 21:42:22;;;;;;;;;;;10.70;99.90;;;;;;21369349;27;20382;-79
2023/10/30 21:52:23;;;;;;;;;;;10.70;99.90;;;;;;21344547;27;19921;-79
2023/10/30 22:02:24;;;;;;;;;;;10.70;99.90;;;;;;21349042;27;19962;-79
2023/10/30 22:12:24;;;;;;;;;;;10.60;99.90;;;;;;21333192;27;19938;-79
2023/10/30 22:22:25;;;;;;;;;;;10.50;99.90;;;;;;21327364;27;19911;-79
2023/10/30 22:32:26;;;;;;;;;;;10.50;99.90;;;;;;21338236;27;19988;-80
2023/10/30 22:42:27;;;;;;;;;;;10.50;99.90;;;;;;21321514;27;20348;-80
2023/10/30 22:52:27;;;;;;;;;;;10.50;99.90;;;;;;21347338;27;20382;-79
2023/10/30 23:02:28;;;;;;;;;;;10.40;99.90;;;;;;21375463;27;19922;-79
2023/10/30 23:12:29;;;;;;;;;;;10.30;99.90;;;;;;21380326;27;19914;-79
2023/10/30 23:22:29;;;;;;;;;;;10.30;99.90;;;;;;21402261;27;19915;-79
2023/10/30 23:32:30;;;;;;;;;;;10.20;99.90;;;;;;21406041;27;19914;-79
2023/10/30 23:42:31;;;;;;;;;;;10.10;99.90;;;;;;21391521;27;19917;-79
2023/10/30 23:52:31;;;;;;;;;;;10.10;99.90;;;;;;21347748;27;19914;-80
